Terminal Aerodrome Forecast
Issued by NWS Cleveland, OH

Home | Current Version | Previous Version | Graphics & Text | Print | Product List | Glossary Off
Versions: 1 2 3 4 5 6 7 8 9 10 11 12 13 14 15

000
FTUS41 KCLE 291134
TAFYNG
TAF
KYNG 291134Z 2912/3012 04004KT P6SM OVC015
     FM291400 01005KT 4SM -SHRA OVC012
     FM292200 03005KT P6SM OVC008
     FM300600 10006KT P6SM OVC012=

USA.gov is the U.S. government's official web portal to all federal, state and local government web resources and services.